sensor_id;sensor_type;location;lat;lon;timestamp;temperature;humidity
56861;DHT22;42744;51.094;3.490;2022-10-16T00:00:19;13.90;99.90
56861;DHT22;42744;51.094;3.490;2022-10-16T00:02:45;13.80;99.90
56861;DHT22;42744;51.094;3.490;2022-10-16T00:05:11;13.80;99.90
56861;DHT22;42744;51.094;3.490;2022-10-16T00:07:37;13.80;99.90
56861;DHT22;42744;51.094;3.490;2022-10-16T00:10:03;13.70;99.90
56861;DHT22;42744;51.094;3.490;2022-10-16T00:12:29;13.70;99.90
56861;DHT22;42744;51.094;3.490;2022-10-16T00:14:55;13.70;99.90
56861;DHT22;42744;51.094;3.490;2022-10-16T00:17:21;13.70;99.90
56861;DHT22;42744;51.094;3.490;2022-10-16T00:19:46;13.60;99.90
56861;DHT22;42744;51.094;3.490;2022-10-16T00:22:13;13.60;99.90
56861;DHT22;42744;51.094;3.490;2022-10-16T00:24:39;13.60;99.90
56861;DHT22;42744;51.094;3.490;2022-10-16T00:27:04;13.50;99.90
56861;DHT22;42744;51.094;3.490;2022-10-16T00:29:30;13.50;99.90
56861;DHT22;42744;51.094;3.490;2022-10-16T00:31:56;13.50;99.90
56861;DHT22;42744;51.094;3.490;2022-10-16T00:34:22;13.40;99.90
56861;DHT22;42744;51.094;3.490;2022-10-16T00:36:48;13.40;99.90
56861;DHT22;42744;51.094;3.490;2022-10-16T00:39:14;13.40;99.90
56861;DHT22;42744;51.094;3.490;2022-10-16T00:41:40;13.30;99.90
56861;DHT22;42744;51.094;3.490;2022-10-16T00:47:15;13.30;99.90
56861;DHT22;42744;51.094;3.490;2022-10-16T00:49:43;13.30;99.90
56861;DHT22;42744;51.094;3.490;2022-10-16T00:52:10;13.30;99.90
56861;DHT22;42744;51.094;3.490;2022-10-16T00:54:36;13.20;99.90
56861;DHT22;42744;51.094;3.490;2022-10-16T00:57:05;13.20;99.90
56861;DHT22;42744;51.094;3.490;2022-10-16T00:59:37;13.20;99.90
56861;DHT22;42744;51.094;3.490;2022-10-16T01:02:05;13.20;99.90
56861;DHT22;42744;51.094;3.490;2022-10-16T01:04:35;13.20;99.90
56861;DHT22;42744;51.094;3.490;2022-10-16T01:10:17;13.20;99.90
56861;DHT22;42744;51.094;3.490;2022-10-16T01:13:08;13.20;99.90
56861;DHT22;42744;51.094;3.490;2022-10-16T01:18:44;13.20;99.90
56861;DHT22;42744;51.094;3.490;2022-10-16T01:21:22;13.10;99.90
56861;DHT22;42744;51.094;3.490;2022-10-16T01:34:57;13.10;99.90
56861;DHT22;42744;51.094;3.490;2022-10-16T01:37:35;13.10;99.90
56861;DHT22;42744;51.094;3.490;2022-10-16T01:40:06;13.10;99.90
56861;DHT22;42744;51.094;3.490;2022-10-16T01:42:38;13.10;99.90
56861;DHT22;42744;51.094;3.490;2022-10-16T01:45:06;13.10;99.90
56861;DHT22;42744;51.094;3.490;2022-10-16T01:47:34;13.10;99.90
56861;DHT22;42744;51.094;3.490;2022-10-16T01:50:03;13.10;99.90
56861;DHT22;42744;51.094;3.490;2022-10-16T01:52:32;13.10;99.90
56861;DHT22;42744;51.094;3.490;2022-10-16T01:55:00;13.10;99.90
56861;DHT22;42744;51.094;3.490;2022-10-16T01:57:32;13.10;99.90
56861;DHT22;42744;51.094;3.490;2022-10-16T02:00:04;13.10;99.90
56861;DHT22;42744;51.094;3.490;2022-10-16T02:02:39;13.10;99.90
56861;DHT22;42744;51.094;3.490;2022-10-16T02:05:23;13.10;99.90
56861;DHT22;42744;51.094;3.490;2022-10-16T02:07:50;13.10;99.90
56861;DHT22;42744;51.094;3.490;2022-10-16T02:10:17;13.10;99.90
56861;DHT22;42744;51.094;3.490;2022-10-16T02:12:58;13.10;99.90
56861;DHT22;42744;51.094;3.490;2022-10-16T02:15:25;13.10;99.90
56861;DHT22;42744;51.094;3.490;2022-10-16T02:17:51;13.10;99.90
56861;DHT22;42744;51.094;3.490;2022-10-16T02:20:17;13.10;99.90
56861;DHT22;42744;51.094;3.490;2022-10-16T02:22:47;13.10;99.90
56861;DHT22;42744;51.094;3.490;2022-10-16T02:25:35;13.10;99.90
56861;DHT22;42744;51.094;3.490;2022-10-16T02:28:08;13.10;99.90
56861;DHT22;42744;51.094;3.490;2022-10-16T02:30:39;13.00;99.90
56861;DHT22;42744;51.094;3.490;2022-10-16T02:33:09;13.10;99.90
56861;DHT22;42744;51.094;3.490;2022-10-16T02:35:36;13.00;99.90
56861;DHT22;42744;51.094;3.490;2022-10-16T02:38:03;13.00;99.90
56861;DHT22;42744;51.094;3.490;2022-10-16T02:40:29;13.00;99.90
56861;DHT22;42744;51.094;3.490;2022-10-16T02:42:56;13.00;99.90
56861;DHT22;42744;51.094;3.490;2022-10-16T02:45:22;13.00;99.90
56861;DHT22;42744;51.094;3.490;2022-10-16T02:47:49;13.00;99.90
56861;DHT22;42744;51.094;3.490;2022-10-16T02:50:15;13.00;99.90
56861;DHT22;42744;51.094;3.490;2022-10-16T02:52:41;13.00;99.90
56861;DHT22;42744;51.094;3.490;2022-10-16T02:55:10;13.00;99.90
56861;DHT22;42744;51.094;3.490;2022-10-16T02:57:36;13.00;99.90
56861;DHT22;42744;51.094;3.490;2022-10-16T03:00:04;13.00;99.90
56861;DHT22;42744;51.094;3.490;2022-10-16T03:02:31;13.00;99.90
56861;DHT22;42744;51.094;3.490;2022-10-16T03:04:56;12.90;99.90
56861;DHT22;42744;51.094;3.490;2022-10-16T03:07:22;12.90;99.90
56861;DHT22;42744;51.094;3.490;2022-10-16T03:09:48;12.90;99.90
56861;DHT22;42744;51.094;3.490;2022-10-16T03:12:14;12.90;99.90
56861;DHT22;42744;51.094;3.490;2022-10-16T03:14:40;12.90;99.90
56861;DHT22;42744;51.094;3.490;2022-10-16T03:17:06;12.90;99.90
56861;DHT22;42744;51.094;3.490;2022-10-16T03:19:32;12.90;99.90
56861;DHT22;42744;51.094;3.490;2022-10-16T03:21:58;12.90;99.90
56861;DHT22;42744;51.094;3.490;2022-10-16T03:24:24;12.90;99.90
56861;DHT22;42744;51.094;3.490;2022-10-16T03:26:50;12.90;99.90
56861;DHT22;42744;51.094;3.490;2022-10-16T03:29:16;12.90;99.90
56861;DHT22;42744;51.094;3.490;2022-10-16T03:31:42;12.80;99.90
56861;DHT22;42744;51.094;3.490;2022-10-16T03:34:08;12.80;99.90
56861;DHT22;42744;51.094;3.490;2022-10-16T03:36:34;12.80;99.90
56861;DHT22;42744;51.094;3.490;2022-10-16T03:39:00;12.80;99.90
56861;DHT22;42744;51.094;3.490;2022-10-16T03:41:26;12.80;99.90
56861;DHT22;42744;51.094;3.490;2022-10-16T03:43:52;12.80;99.90
56861;DHT22;42744;51.094;3.490;2022-10-16T03:46:18;12.70;99.90
56861;DHT22;42744;51.094;3.490;2022-10-16T03:48:44;12.70;99.90
56861;DHT22;42744;51.094;3.490;2022-10-16T03:51:10;12.70;99.90
56861;DHT22;42744;51.094;3.490;2022-10-16T03:53:36;12.70;99.90
56861;DHT22;42744;51.094;3.490;2022-10-16T03:56:02;12.70;99.90
56861;DHT22;42744;51.094;3.490;2022-10-16T03:58:28;12.60;99.90
56861;DHT22;42744;51.094;3.490;2022-10-16T04:00:55;12.60;99.90
56861;DHT22;42744;51.094;3.490;2022-10-16T04:03:21;12.60;99.90
56861;DHT22;42744;51.094;3.490;2022-10-16T04:05:47;12.60;99.90
56861;DHT22;42744;51.094;3.490;2022-10-16T04:08:13;12.50;99.90
56861;DHT22;42744;51.094;3.490;2022-10-16T04:10:39;12.60;99.90
56861;DHT22;42744;51.094;3.490;2022-10-16T04:13:05;12.60;99.90
56861;DHT22;42744;51.094;3.490;2022-10-16T04:15:31;12.50;99.90
56861;DHT22;42744;51.094;3.490;2022-10-16T04:17:57;12.60;99.90
56861;DHT22;42744;51.094;3.490;2022-10-16T04:20:23;12.60;99.90
56861;DHT22;42744;51.094;3.490;2022-10-16T04:22:49;12.50;99.90
56861;DHT22;42744;51.094;3.490;2022-10-16T04:25:15;12.50;99.90
56861;DHT22;42744;51.094;3.490;2022-10-16T04:27:41;12.50;99.90
56861;DHT22;42744;51.094;3.490;2022-10-16T04:30:07;12.50;99.90
56861;DHT22;42744;51.094;3.490;2022-10-16T04:32:33;12.50;99.90
56861;DHT22;42744;51.094;3.490;2022-10-16T04:35:00;12.50;99.90
56861;DHT22;42744;51.094;3.490;2022-10-16T04:37:26;12.50;99.90
56861;DHT22;42744;51.094;3.490;2022-10-16T04:39:53;12.50;99.90
56861;DHT22;42744;51.094;3.490;2022-10-16T04:42:20;12.50;99.90
56861;DHT22;42744;51.094;3.490;2022-10-16T04:44:46;12.50;99.90
56861;DHT22;42744;51.094;3.490;2022-10-16T04:47:13;12.50;99.90
56861;DHT22;42744;51.094;3.490;2022-10-16T04:49:39;12.50;99.90
56861;DHT22;42744;51.094;3.490;2022-10-16T04:52:05;12.50;99.90
56861;DHT22;42744;51.094;3.490;2022-10-16T04:54:31;12.40;99.90
56861;DHT22;42744;51.094;3.490;2022-10-16T04:56:57;12.50;99.90
56861;DHT22;42744;51.094;3.490;2022-10-16T04:59:23;12.50;99.90
56861;DHT22;42744;51.094;3.490;2022-10-16T05:01:50;12.50;99.90
56861;DHT22;42744;51.094;3.490;2022-10-16T05:04:16;12.50;99.90
56861;DHT22;42744;51.094;3.490;2022-10-16T05:06:42;12.50;99.90
56861;DHT22;42744;51.094;3.490;2022-10-16T05:09:08;12.60;99.90
56861;DHT22;42744;51.094;3.490;2022-10-16T05:11:34;12.60;99.90
56861;DHT22;42744;51.094;3.490;2022-10-16T05:14:01;12.60;99.90
56861;DHT22;42744;51.094;3.490;2022-10-16T05:16:27;12.60;99.90
56861;DHT22;42744;51.094;3.490;2022-10-16T05:18:54;12.60;99.90
56861;DHT22;42744;51.094;3.490;2022-10-16T05:21:20;12.60;99.90
56861;DHT22;42744;51.094;3.490;2022-10-16T05:23:46;12.60;99.90
56861;DHT22;42744;51.094;3.490;2022-10-16T05:26:12;12.70;99.90
56861;DHT22;42744;51.094;3.490;2022-10-16T05:28:38;12.70;99.90
56861;DHT22;42744;51.094;3.490;2022-10-16T05:31:08;12.70;99.90
56861;DHT22;42744;51.094;3.490;2022-10-16T05:33:35;12.70;99.90
56861;DHT22;42744;51.094;3.490;2022-10-16T05:36:02;12.70;99.90
56861;DHT22;42744;51.094;3.490;2022-10-16T05:38:29;12.70;99.90
56861;DHT22;42744;51.094;3.490;2022-10-16T05:40:55;12.70;99.90
56861;DHT22;42744;51.094;3.490;2022-10-16T05:43:22;12.70;99.90
56861;DHT22;42744;51.094;3.490;2022-10-16T05:46:01;12.70;99.90
56861;DHT22;42744;51.094;3.490;2022-10-16T05:48:27;12.60;99.90
56861;DHT22;42744;51.094;3.490;2022-10-16T05:51:05;12.70;99.90
56861;DHT22;42744;51.094;3.490;2022-10-16T05:53:34;12.70;99.90
56861;DHT22;42744;51.094;3.490;2022-10-16T05:56:01;12.60;99.90
56861;DHT22;42744;51.094;3.490;2022-10-16T05:58:32;12.60;99.90
56861;DHT22;42744;51.094;3.490;2022-10-16T06:01:00;12.60;99.90
56861;DHT22;42744;51.094;3.490;2022-10-16T06:03:27;12.60;99.90
56861;DHT22;42744;51.094;3.490;2022-10-16T06:05:54;12.60;99.90
56861;DHT22;42744;51.094;3.490;2022-10-16T06:08:21;12.60;99.90
56861;DHT22;42744;51.094;3.490;2022-10-16T06:10:49;12.60;99.90
56861;DHT22;42744;51.094;3.490;2022-10-16T06:13:25;12.60;99.90
56861;DHT22;42744;51.094;3.490;2022-10-16T06:15:51;12.60;99.90
56861;DHT22;42744;51.094;3.490;2022-10-16T06:18:17;12.60;99.90
56861;DHT22;42744;51.094;3.490;2022-10-16T06:20:43;12.60;99.90
56861;DHT22;42744;51.094;3.490;2022-10-16T06:23:09;12.70;99.90
56861;DHT22;42744;51.094;3.490;2022-10-16T06:25:35;12.70;99.90
56861;DHT22;42744;51.094;3.490;2022-10-16T06:28:01;12.70;99.90
56861;DHT22;42744;51.094;3.490;2022-10-16T06:30:27;12.70;99.90
56861;DHT22;42744;51.094;3.490;2022-10-16T06:32:53;12.80;99.90
56861;DHT22;42744;51.094;3.490;2022-10-16T06:35:19;12.80;99.90
56861;DHT22;42744;51.094;3.490;2022-10-16T06:37:45;12.80;99.90
56861;DHT22;42744;51.094;3.490;2022-10-16T06:40:11;12.80;99.90
56861;DHT22;42744;51.094;3.490;2022-10-16T06:42:40;12.80;99.90
56861;DHT22;42744;51.094;3.490;2022-10-16T06:45:06;12.80;99.90
56861;DHT22;42744;51.094;3.490;2022-10-16T06:47:32;12.70;99.90
56861;DHT22;42744;51.094;3.490;2022-10-16T06:49:58;12.70;99.90
56861;DHT22;42744;51.094;3.490;2022-10-16T06:52:24;12.70;99.90
56861;DHT22;42744;51.094;3.490;2022-10-16T06:54:53;12.70;99.90
56861;DHT22;42744;51.094;3.490;2022-10-16T06:57:18;12.70;99.90
56861;DHT22;42744;51.094;3.490;2022-10-16T06:59:45;12.70;99.90
56861;DHT22;42744;51.094;3.490;2022-10-16T07:02:11;12.70;99.90
56861;DHT22;42744;51.094;3.490;2022-10-16T07:04:36;12.70;99.90
56861;DHT22;42744;51.094;3.490;2022-10-16T07:07:03;12.70;99.90
56861;DHT22;42744;51.094;3.490;2022-10-16T07:09:29;12.70;99.90
56861;DHT22;42744;51.094;3.490;2022-10-16T07:11:55;12.70;99.90
56861;DHT22;42744;51.094;3.490;2022-10-16T07:14:21;12.80;99.90
56861;DHT22;42744;51.094;3.490;2022-10-16T07:16:47;12.70;99.90
56861;DHT22;42744;51.094;3.490;2022-10-16T07:19:14;12.80;99.90
56861;DHT22;42744;51.094;3.490;2022-10-16T07:21:41;12.70;99.90
56861;DHT22;42744;51.094;3.490;2022-10-16T07:24:12;12.80;99.90
56861;DHT22;42744;51.094;3.490;2022-10-16T07:26:39;12.80;99.90
56861;DHT22;42744;51.094;3.490;2022-10-16T07:29:15;12.80;99.90
56861;DHT22;42744;51.094;3.490;2022-10-16T07:31:41;12.80;99.90
56861;DHT22;42744;51.094;3.490;2022-10-16T07:34:08;12.80;99.90
56861;DHT22;42744;51.094;3.490;2022-10-16T07:36:35;12.80;99.90
56861;DHT22;42744;51.094;3.490;2022-10-16T07:39:00;12.90;99.90
56861;DHT22;42744;51.094;3.490;2022-10-16T07:41:27;12.90;99.90
56861;DHT22;42744;51.094;3.490;2022-10-16T07:43:54;13.00;99.90
56861;DHT22;42744;51.094;3.490;2022-10-16T07:46:21;13.00;99.90
56861;DHT22;42744;51.094;3.490;2022-10-16T07:48:48;13.00;99.90
56861;DHT22;42744;51.094;3.490;2022-10-16T07:51:19;13.10;99.90
56861;DHT22;42744;51.094;3.490;2022-10-16T07:53:46;13.10;99.90
56861;DHT22;42744;51.094;3.490;2022-10-16T07:56:13;13.10;99.90
56861;DHT22;42744;51.094;3.490;2022-10-16T07:58:40;13.20;99.90
56861;DHT22;42744;51.094;3.490;2022-10-16T08:01:07;13.20;99.90
56861;DHT22;42744;51.094;3.490;2022-10-16T08:03:34;13.20;99.90
56861;DHT22;42744;51.094;3.490;2022-10-16T08:06:00;13.30;99.90
56861;DHT22;42744;51.094;3.490;2022-10-16T08:08:27;13.40;99.90
56861;DHT22;42744;51.094;3.490;2022-10-16T08:10:53;13.40;99.90
56861;DHT22;42744;51.094;3.490;2022-10-16T08:13:19;13.50;99.90
56861;DHT22;42744;51.094;3.490;2022-10-16T08:15:46;13.50;99.90
56861;DHT22;42744;51.094;3.490;2022-10-16T08:18:14;13.60;99.90
56861;DHT22;42744;51.094;3.490;2022-10-16T08:20:40;13.60;99.90
56861;DHT22;42744;51.094;3.490;2022-10-16T08:23:07;13.70;99.90
56861;DHT22;42744;51.094;3.490;2022-10-16T08:25:37;13.70;99.90
56861;DHT22;42744;51.094;3.490;2022-10-16T08:28:04;13.80;99.90
56861;DHT22;42744;51.094;3.490;2022-10-16T08:30:31;13.90;99.90
56861;DHT22;42744;51.094;3.490;2022-10-16T08:32:57;13.90;99.90
56861;DHT22;42744;51.094;3.490;2022-10-16T08:35:24;14.00;99.90
56861;DHT22;42744;51.094;3.490;2022-10-16T08:37:49;14.10;99.90
56861;DHT22;42744;51.094;3.490;2022-10-16T08:40:17;14.20;99.90
56861;DHT22;42744;51.094;3.490;2022-10-16T08:42:53;14.30;99.90
56861;DHT22;42744;51.094;3.490;2022-10-16T08:45:26;14.40;99.90
56861;DHT22;42744;51.094;3.490;2022-10-16T08:50:28;14.50;99.90
56861;DHT22;42744;51.094;3.490;2022-10-16T08:52:55;14.70;99.90
56861;DHT22;42744;51.094;3.490;2022-10-16T08:55:38;14.70;99.90
56861;DHT22;42744;51.094;3.490;2022-10-16T08:58:18;14.80;99.90
56861;DHT22;42744;51.094;3.490;2022-10-16T09:00:47;14.90;99.90
56861;DHT22;42744;51.094;3.490;2022-10-16T09:03:24;15.00;99.90
56861;DHT22;42744;51.094;3.490;2022-10-16T09:08:44;15.10;99.90
56861;DHT22;42744;51.094;3.490;2022-10-16T09:11:33;15.20;99.90
56861;DHT22;42744;51.094;3.490;2022-10-16T09:17:04;15.40;99.90
56861;DHT22;42744;51.094;3.490;2022-10-16T09:19:46;15.50;99.90
56861;DHT22;42744;51.094;3.490;2022-10-16T09:22:17;15.60;99.90
56861;DHT22;42744;51.094;3.490;2022-10-16T09:24:44;15.70;99.90
56861;DHT22;42744;51.094;3.490;2022-10-16T09:27:11;15.80;99.90
56861;DHT22;42744;51.094;3.490;2022-10-16T09:29:38;15.90;99.90
56861;DHT22;42744;51.094;3.490;2022-10-16T09:32:14;16.00;99.90
56861;DHT22;42744;51.094;3.490;2022-10-16T09:34:48;15.90;99.90
56861;DHT22;42744;51.094;3.490;2022-10-16T09:37:19;16.00;99.90
56861;DHT22;42744;51.094;3.490;2022-10-16T09:39:50;16.00;99.90
56861;DHT22;42744;51.094;3.490;2022-10-16T09:42:22;16.10;99.90
56861;DHT22;42744;51.094;3.490;2022-10-16T09:44:51;16.10;99.90
56861;DHT22;42744;51.094;3.490;2022-10-16T09:47:27;16.10;99.90
56861;DHT22;42744;51.094;3.490;2022-10-16T09:49:59;16.10;99.90
56861;DHT22;42744;51.094;3.490;2022-10-16T09:52:29;16.20;99.90
56861;DHT22;42744;51.094;3.490;2022-10-16T09:54:57;16.40;99.90
56861;DHT22;42744;51.094;3.490;2022-10-16T09:57:24;16.50;99.90
56861;DHT22;42744;51.094;3.490;2022-10-16T09:59:52;16.70;99.90
56861;DHT22;42744;51.094;3.490;2022-10-16T10:02:23;16.80;99.90
56861;DHT22;42744;51.094;3.490;2022-10-16T10:04:53;16.80;99.90
56861;DHT22;42744;51.094;3.490;2022-10-16T10:07:35;16.80;99.90
56861;DHT22;42744;51.094;3.490;2022-10-16T10:10:05;16.90;99.90
56861;DHT22;42744;51.094;3.490;2022-10-16T10:12:33;17.00;99.90
56861;DHT22;42744;51.094;3.490;2022-10-16T10:15:12;17.20;99.90
56861;DHT22;42744;51.094;3.490;2022-10-16T10:20:24;17.70;99.90
56861;DHT22;42744;51.094;3.490;2022-10-16T10:22:50;17.90;99.90
56861;DHT22;42744;51.094;3.490;2022-10-16T10:46:54;19.10;99.90
56861;DHT22;42744;51.094;3.490;2022-10-16T10:55:03;18.50;99.90
56861;DHT22;42744;51.094;3.490;2022-10-16T11:05:52;19.40;99.90
56861;DHT22;42744;51.094;3.490;2022-10-16T11:08:42;19.30;99.90
56861;DHT22;42744;51.094;3.490;2022-10-16T11:11:20;19.20;99.90
56861;DHT22;42744;51.094;3.490;2022-10-16T11:16:34;19.00;99.90
56861;DHT22;42744;51.094;3.490;2022-10-16T11:22:13;19.50;99.90
56861;DHT22;42744;51.094;3.490;2022-10-16T11:25:04;19.40;99.90
56861;DHT22;42744;51.094;3.490;2022-10-16T11:36:09;20.70;99.90
56861;DHT22;42744;51.094;3.490;2022-10-16T11:41:27;20.50;99.90
56861;DHT22;42744;51.094;3.490;2022-10-16T11:46:32;20.30;99.90
56861;DHT22;42744;51.094;3.490;2022-10-16T11:49:18;20.20;99.90
56861;DHT22;42744;51.094;3.490;2022-10-16T11:52:07;20.20;99.90
56861;DHT22;42744;51.094;3.490;2022-10-16T11:54:56;20.50;99.90
56861;DHT22;42744;51.094;3.490;2022-10-16T11:57:28;20.60;99.90
56861;DHT22;42744;51.094;3.490;2022-10-16T12:02:50;21.10;99.90
56861;DHT22;42744;51.094;3.490;2022-10-16T12:08:14;21.20;99.90
56861;DHT22;42744;51.094;3.490;2022-10-16T12:10:43;20.80;99.90
56861;DHT22;42744;51.094;3.490;2022-10-16T12:13:29;20.40;99.90
56861;DHT22;42744;51.094;3.490;2022-10-16T12:18:42;19.90;99.90
56861;DHT22;42744;51.094;3.490;2022-10-16T12:21:10;20.20;99.90
56861;DHT22;42744;51.094;3.490;2022-10-16T12:23:48;20.80;99.90
56861;DHT22;42744;51.094;3.490;2022-10-16T12:26:24;21.40;99.90
56861;DHT22;42744;51.094;3.490;2022-10-16T12:28:50;21.90;99.90
56861;DHT22;42744;51.094;3.490;2022-10-16T12:31:17;21.80;99.90
56861;DHT22;42744;51.094;3.490;2022-10-16T12:33:56;21.90;99.90
56861;DHT22;42744;51.094;3.490;2022-10-16T12:36:29;21.80;99.90
56861;DHT22;42744;51.094;3.490;2022-10-16T12:38:55;21.60;99.90
56861;DHT22;42744;51.094;3.490;2022-10-16T12:41:33;21.30;99.90
56861;DHT22;42744;51.094;3.490;2022-10-16T12:44:01;20.90;99.90
56861;DHT22;42744;51.094;3.490;2022-10-16T12:51:43;21.30;99.90
56861;DHT22;42744;51.094;3.490;2022-10-16T13:05:41;20.50;99.90
56861;DHT22;42744;51.094;3.490;2022-10-16T13:11:30;20.90;99.90
56861;DHT22;42744;51.094;3.490;2022-10-16T13:25:34;20.60;99.90
56861;DHT22;42744;51.094;3.490;2022-10-16T13:28:07;20.40;99.90
56861;DHT22;42744;51.094;3.490;2022-10-16T13:30:41;20.30;99.90
56861;DHT22;42744;51.094;3.490;2022-10-16T13:33:15;20.20;99.90
56861;DHT22;42744;51.094;3.490;2022-10-16T13:35:56;20.20;99.90
56861;DHT22;42744;51.094;3.490;2022-10-16T13:38:24;20.10;99.90
56861;DHT22;42744;51.094;3.490;2022-10-16T13:43:33;20.00;99.90
56861;DHT22;42744;51.094;3.490;2022-10-16T13:48:31;19.70;99.90
56861;DHT22;42744;51.094;3.490;2022-10-16T13:51:13;19.70;99.90
56861;DHT22;42744;51.094;3.490;2022-10-16T13:53:40;19.60;99.90
56861;DHT22;42744;51.094;3.490;2022-10-16T13:56:15;19.50;99.90
56861;DHT22;42744;51.094;3.490;2022-10-16T13:58:41;19.40;99.90
56861;DHT22;42744;51.094;3.490;2022-10-16T14:01:20;19.30;99.90
56861;DHT22;42744;51.094;3.490;2022-10-16T14:03:51;19.10;99.90
56861;DHT22;42744;51.094;3.490;2022-10-16T14:06:20;19.00;99.90
56861;DHT22;42744;51.094;3.490;2022-10-16T14:08:55;18.90;99.90
56861;DHT22;42744;51.094;3.490;2022-10-16T14:11:23;18.80;99.90
56861;DHT22;42744;51.094;3.490;2022-10-16T14:13:50;18.70;99.90
56861;DHT22;42744;51.094;3.490;2022-10-16T14:16:19;18.60;99.90
56861;DHT22;42744;51.094;3.490;2022-10-16T14:18:50;18.70;99.90
56861;DHT22;42744;51.094;3.490;2022-10-16T14:21:19;18.70;99.90
56861;DHT22;42744;51.094;3.490;2022-10-16T14:23:45;18.70;99.90
56861;DHT22;42744;51.094;3.490;2022-10-16T14:26:12;18.70;99.90
56861;DHT22;42744;51.094;3.490;2022-10-16T14:28:40;18.70;99.90
56861;DHT22;42744;51.094;3.490;2022-10-16T14:33:46;18.50;99.90
56861;DHT22;42744;51.094;3.490;2022-10-16T14:36:16;18.50;99.90
56861;DHT22;42744;51.094;3.490;2022-10-16T14:39:03;18.30;99.90
56861;DHT22;42744;51.094;3.490;2022-10-16T14:41:31;18.20;99.90
56861;DHT22;42744;51.094;3.490;2022-10-16T14:44:03;18.20;99.90
56861;DHT22;42744;51.094;3.490;2022-10-16T14:46:37;18.10;99.90
56861;DHT22;42744;51.094;3.490;2022-10-16T14:51:35;18.10;99.90
56861;DHT22;42744;51.094;3.490;2022-10-16T14:54:01;18.00;99.90
56861;DHT22;42744;51.094;3.490;2022-10-16T14:56:51;18.00;99.90
56861;DHT22;42744;51.094;3.490;2022-10-16T14:59:38;18.00;99.90
56861;DHT22;42744;51.094;3.490;2022-10-16T15:04:46;17.90;99.90
56861;DHT22;42744;51.094;3.490;2022-10-16T15:07:12;17.90;99.90
56861;DHT22;42744;51.094;3.490;2022-10-16T15:09:38;17.80;99.90
56861;DHT22;42744;51.094;3.490;2022-10-16T15:12:04;17.80;99.90
56861;DHT22;42744;51.094;3.490;2022-10-16T15:14:30;17.80;99.90
56861;DHT22;42744;51.094;3.490;2022-10-16T15:16:56;17.80;99.90
56861;DHT22;42744;51.094;3.490;2022-10-16T15:19:22;17.70;99.90
56861;DHT22;42744;51.094;3.490;2022-10-16T15:21:48;17.70;99.90
56861;DHT22;42744;51.094;3.490;2022-10-16T15:24:15;17.60;99.90
56861;DHT22;42744;51.094;3.490;2022-10-16T15:26:41;17.60;99.90
56861;DHT22;42744;51.094;3.490;2022-10-16T15:29:07;17.60;99.90
56861;DHT22;42744;51.094;3.490;2022-10-16T15:31:34;17.60;99.90
56861;DHT22;42744;51.094;3.490;2022-10-16T15:34:00;17.60;99.90
56861;DHT22;42744;51.094;3.490;2022-10-16T15:36:34;17.50;99.90
56861;DHT22;42744;51.094;3.490;2022-10-16T15:39:13;17.50;99.90
56861;DHT22;42744;51.094;3.490;2022-10-16T15:41:39;17.50;99.90
56861;DHT22;42744;51.094;3.490;2022-10-16T15:44:05;17.30;99.90
56861;DHT22;42744;51.094;3.490;2022-10-16T15:46:31;17.20;99.90
56861;DHT22;42744;51.094;3.490;2022-10-16T15:49:00;17.10;99.90
56861;DHT22;42744;51.094;3.490;2022-10-16T15:51:27;17.00;99.90
56861;DHT22;42744;51.094;3.490;2022-10-16T15:53:58;17.00;99.90
56861;DHT22;42744;51.094;3.490;2022-10-16T15:56:25;16.90;99.90
56861;DHT22;42744;51.094;3.490;2022-10-16T15:58:55;16.70;99.90
56861;DHT22;42744;51.094;3.490;2022-10-16T16:01:21;16.70;99.90
56861;DHT22;42744;51.094;3.490;2022-10-16T16:03:47;16.60;99.90
56861;DHT22;42744;51.094;3.490;2022-10-16T16:06:14;16.60;99.90
56861;DHT22;42744;51.094;3.490;2022-10-16T16:08:40;16.50;99.90
56861;DHT22;42744;51.094;3.490;2022-10-16T16:11:09;16.50;99.90
56861;DHT22;42744;51.094;3.490;2022-10-16T16:13:35;16.50;99.90
56861;DHT22;42744;51.094;3.490;2022-10-16T16:16:08;16.40;99.90
56861;DHT22;42744;51.094;3.490;2022-10-16T16:18:34;16.30;99.90
56861;DHT22;42744;51.094;3.490;2022-10-16T16:21:02;16.40;99.90
56861;DHT22;42744;51.094;3.490;2022-10-16T16:23:28;16.30;99.90
56861;DHT22;42744;51.094;3.490;2022-10-16T16:26:06;16.30;99.90
56861;DHT22;42744;51.094;3.490;2022-10-16T16:28:32;16.30;99.90
56861;DHT22;42744;51.094;3.490;2022-10-16T16:30:58;16.30;99.90
56861;DHT22;42744;51.094;3.490;2022-10-16T16:33:24;16.20;99.90
56861;DHT22;42744;51.094;3.490;2022-10-16T16:35:50;16.20;99.90
56861;DHT22;42744;51.094;3.490;2022-10-16T16:38:16;16.10;99.90
56861;DHT22;42744;51.094;3.490;2022-10-16T16:40:42;16.10;99.90
56861;DHT22;42744;51.094;3.490;2022-10-16T16:43:08;16.00;99.90
56861;DHT22;42744;51.094;3.490;2022-10-16T16:45:37;16.00;99.90
56861;DHT22;42744;51.094;3.490;2022-10-16T16:48:03;16.00;99.90
56861;DHT22;42744;51.094;3.490;2022-10-16T16:50:35;15.90;99.90
56861;DHT22;42744;51.094;3.490;2022-10-16T16:53:01;15.90;99.90
56861;DHT22;42744;51.094;3.490;2022-10-16T16:55:27;15.90;99.90
56861;DHT22;42744;51.094;3.490;2022-10-16T16:57:53;15.90;99.90
56861;DHT22;42744;51.094;3.490;2022-10-16T17:00:19;15.90;99.90
56861;DHT22;42744;51.094;3.490;2022-10-16T17:02:51;15.80;99.90
56861;DHT22;42744;51.094;3.490;2022-10-16T17:05:18;15.80;99.90
56861;DHT22;42744;51.094;3.490;2022-10-16T17:07:44;15.80;99.90
56861;DHT22;42744;51.094;3.490;2022-10-16T17:10:10;15.70;99.90
56861;DHT22;42744;51.094;3.490;2022-10-16T17:12:36;15.70;99.90
56861;DHT22;42744;51.094;3.490;2022-10-16T17:15:03;15.60;99.90
56861;DHT22;42744;51.094;3.490;2022-10-16T17:17:29;15.60;99.90
56861;DHT22;42744;51.094;3.490;2022-10-16T17:19:55;15.50;99.90
56861;DHT22;42744;51.094;3.490;2022-10-16T17:22:21;15.60;99.90
56861;DHT22;42744;51.094;3.490;2022-10-16T17:24:48;15.60;99.90
56861;DHT22;42744;51.094;3.490;2022-10-16T17:27:15;15.50;99.90
56861;DHT22;42744;51.094;3.490;2022-10-16T17:29:41;15.40;99.90
56861;DHT22;42744;51.094;3.490;2022-10-16T17:32:07;15.40;99.90
56861;DHT22;42744;51.094;3.490;2022-10-16T17:34:33;15.40;99.90
56861;DHT22;42744;51.094;3.490;2022-10-16T17:37:00;15.40;99.90
56861;DHT22;42744;51.094;3.490;2022-10-16T17:39:26;15.40;99.90
56861;DHT22;42744;51.094;3.490;2022-10-16T17:41:52;15.40;99.90
56861;DHT22;42744;51.094;3.490;2022-10-16T17:44:19;15.30;99.90
56861;DHT22;42744;51.094;3.490;2022-10-16T17:46:47;15.30;99.90
56861;DHT22;42744;51.094;3.490;2022-10-16T17:49:13;15.40;99.90
56861;DHT22;42744;51.094;3.490;2022-10-16T17:51:39;15.30;99.90
56861;DHT22;42744;51.094;3.490;2022-10-16T17:54:06;15.40;99.90
56861;DHT22;42744;51.094;3.490;2022-10-16T17:56:32;15.30;99.90
56861;DHT22;42744;51.094;3.490;2022-10-16T17:59:00;15.30;99.90